Time;durP1;ratioP1;P1;durP2;ratioP2;P2;SDS_P1;SDS_P2;PMS_P1;PMS_P2;Temp;Humidity;BMP_temperature;BMP_pressure;BME280_temperature;BME280_humidity;BME280_pressure;Samples;Min_cycle;Max_cycle;Signal;HPM_P1;HPM_P2
2023/10/26 00:01:03;;;;;;;3.05;2.70;;;9.40;99.90;;;;;;5057309;28;19924;-62
2023/10/26 00:03:29;;;;;;;;;;;9.40;99.90;;;;;;5061335;28;20119;-62
2023/10/26 00:05:54;;;;;;;3.83;2.55;;;9.40;99.90;;;;;;5057701;28;19935;-64
2023/10/26 00:08:20;;;;;;;4.05;2.72;;;9.40;99.90;;;;;;5062658;28;20540;-64
2023/10/26 00:10:46;;;;;;;;;;;9.40;99.90;;;;;;5050843;28;20561;-64
2023/10/26 00:13:12;;;;;;;2.03;1.67;;;9.40;99.90;;;;;;5050738;28;20007;-64
2023/10/26 00:15:37;;;;;;;;;;;9.40;99.90;;;;;;5059887;28;20132;-64
2023/10/26 00:18:03;;;;;;;2.08;1.50;;;9.40;99.90;;;;;;5051299;28;19921;-63
2023/10/26 00:20:30;;;;;;;;;;;9.40;99.90;;;;;;5037442;28;20049;-64
2023/10/26 00:22:56;;;;;;;1.75;1.52;;;9.40;99.90;;;;;;5045124;28;19917;-64
2023/10/26 00:25:22;;;;;;;;;;;9.40;99.90;;;;;;5046358;28;20072;-64
2023/10/26 00:27:47;;;;;;;1.80;1.30;;;9.40;99.90;;;;;;5049441;28;19917;-64
2023/10/26 00:30:13;;;;;;;;;;;9.30;99.90;;;;;;5043291;28;20041;-64
2023/10/26 00:32:39;;;;;;;1.00;0.77;;;9.30;99.90;;;;;;5046339;28;19916;-64
2023/10/26 00:35:05;;;;;;;1.10;0.80;;;9.30;99.90;;;;;;5044300;28;20117;-64
2023/10/26 00:37:31;;;;;;;1.77;1.00;;;9.30;99.90;;;;;;5050566;28;20048;-64
2023/10/26 00:39:56;;;;;;;;;;;9.30;99.90;;;;;;5042553;28;20367;-64
2023/10/26 00:42:22;;;;;;;0.90;0.80;;;9.30;99.90;;;;;;5040073;28;20253;-63
2023/10/26 00:44:49;;;;;;;;;;;9.30;99.90;;;;;;5039925;28;20060;-63
2023/10/26 00:47:15;;;;;;;;;;;9.30;99.90;;;;;;5046916;28;19931;-61
2023/10/26 00:49:41;;;;;;;1.25;0.52;;;9.30;99.90;;;;;;5041271;28;20020;-62
2023/10/26 00:52:06;;;;;;;;;;;9.30;99.90;;;;;;5044919;28;20536;-63
2023/10/26 00:54:34;;;;;;;3.08;0.55;;;9.40;99.90;;;;;;5043773;28;19921;-63
2023/10/26 00:57:01;;;;;;;1.77;0.50;;;9.40;99.90;;;;;;5037514;28;20056;-63
2023/10/26 00:59:28;;;;;;;0.40;0.40;;;9.40;99.90;;;;;;5044041;28;20041;-63
2023/10/26 01:01:55;;;;;;;2.45;0.57;;;9.40;99.90;;;;;;5035776;28;20037;-62
2023/10/26 01:04:21;;;;;;;0.40;0.30;;;9.50;99.90;;;;;;5040165;28;20037;-63
2023/10/26 01:06:46;;;;;;;;;;;9.40;99.90;;;;;;5041185;28;20048;-63
2023/10/26 01:09:12;;;;;;;0.38;0.28;;;9.40;99.90;;;;;;5045028;28;19952;-62
2023/10/26 01:11:38;;;;;;;;;;;9.40;99.90;;;;;;5041174;28;20497;-62
2023/10/26 01:14:08;;;;;;;0.20;0.20;;;9.40;99.90;;;;;;5053533;28;19931;-63
2023/10/26 01:16:35;;;;;;;0.40;0.38;;;9.40;99.90;;;;;;5047243;28;20060;-63
2023/10/26 01:19:03;;;;;;;0.20;0.20;;;9.40;99.90;;;;;;5041208;28;20057;-61
2023/10/26 01:21:29;;;;;;;0.73;0.30;;;9.40;99.90;;;;;;5038247;28;20145;-61
2023/10/26 01:23:55;;;;;;;3.00;0.25;;;9.40;99.90;;;;;;5044422;28;20059;-62
2023/10/26 01:26:20;;;;;;;;;;;9.40;99.90;;;;;;5034033;28;20047;-64
2023/10/26 01:28:46;;;;;;;0.22;0.20;;;9.30;99.90;;;;;;5039805;28;19920;-64
2023/10/26 01:31:18;;;;;;;0.17;0.17;;;9.30;99.90;;;;;;5044805;28;20036;-63
2023/10/26 01:33:44;;;;;;;0.20;0.20;;;9.40;99.90;;;;;;5061267;28;20119;-62
2023/10/26 01:36:10;;;;;;;1.08;0.17;;;9.40;99.90;;;;;;5063376;28;20708;-65
2023/10/26 01:38:36;;;;;;;;;;;9.40;99.90;;;;;;5062941;28;20051;-63
2023/10/26 01:41:02;;;;;;;0.73;0.20;;;9.40;99.90;;;;;;5057609;28;19916;-62
2023/10/26 01:43:27;;;;;;;0.20;0.20;;;9.40;99.90;;;;;;5061688;28;20628;-65
2023/10/26 01:45:53;;;;;;;;;;;9.40;99.90;;;;;;5057414;28;20036;-62
2023/10/26 01:48:18;;;;;;;0.60;0.38;;;9.40;99.90;;;;;;5059505;28;19920;-64
2023/10/26 01:50:44;;;;;;;1.77;0.22;;;9.40;99.90;;;;;;5060325;28;20132;-63
2023/10/26 01:53:10;;;;;;;1.17;0.30;;;9.40;99.90;;;;;;5064178;28;20037;-63
2023/10/26 01:55:35;;;;;;;1.23;0.70;;;9.40;99.90;;;;;;5063706;28;20085;-63
2023/10/26 01:58:01;;;;;;;;;;;9.40;99.90;;;;;;5060128;28;20117;-63
2023/10/26 02:00:26;;;;;;;1.20;1.10;;;9.40;99.90;;;;;;5059943;28;19922;-63
2023/10/26 02:02:52;;;;;;;2.97;0.82;;;9.30;99.90;;;;;;5061655;28;20651;-63
2023/10/26 02:05:18;;;;;;;;;;;9.30;99.90;;;;;;5058962;28;20032;-63
2023/10/26 02:07:43;;;;;;;4.43;2.00;;;9.30;99.90;;;;;;5063229;28;20395;-63
2023/10/26 02:10:12;;;;;;;;;;;9.30;99.90;;;;;;5061268;28;20040;-63
2023/10/26 02:12:38;;;;;;;3.83;2.50;;;9.30;99.90;;;;;;5057987;28;19917;-63
2023/10/26 02:15:03;;;;;;;;;;;9.30;99.90;;;;;;5058900;28;20516;-64
2023/10/26 02:20:51;;;;;;;3.53;2.72;;;9.20;99.90;;;;;;5052727;28;20123;-63
2023/10/26 02:23:16;;;;;;;;;;;9.20;99.90;;;;;;5062551;28;20190;-64
2023/10/26 02:25:42;;;;;;;3.25;2.25;;;9.20;99.90;;;;;;5061351;28;19936;-64
2023/10/26 02:28:07;;;;;;;;;;;9.20;99.90;;;;;;5067575;28;20513;-64
2023/10/26 02:30:33;;;;;;;3.38;2.30;;;9.20;99.90;;;;;;5063975;28;20339;-62
2023/10/26 02:32:58;;;;;;;;;;;9.20;99.90;;;;;;5061870;28;20041;-64
2023/10/26 02:35:24;;;;;;;2.85;1.98;;;9.10;99.90;;;;;;5061171;28;19920;-64
2023/10/26 02:37:49;;;;;;;;;;;9.10;99.90;;;;;;5061869;28;20071;-63
2023/10/26 02:40:15;;;;;;;3.63;2.10;;;9.10;99.90;;;;;;5058108;28;20551;-64
2023/10/26 02:42:40;;;;;;;;;;;9.10;99.90;;;;;;5066623;28;20693;-63
2023/10/26 02:45:08;;;;;;;3.20;2.53;;;9.00;99.90;;;;;;5053041;28;19927;-63
2023/10/26 02:47:33;;;;;;;3.85;3.00;;;9.00;99.90;;;;;;5060924;28;20044;-64
2023/10/26 02:49:59;;;;;;;;;;;9.00;99.90;;;;;;5063698;28;20077;-64
2023/10/26 02:52:25;;;;;;;5.47;3.58;;;9.00;99.90;;;;;;5061919;28;20018;-64
2023/10/26 02:54:50;;;;;;;6.03;4.40;;;9.00;99.90;;;;;;5060736;28;20093;-62
2023/10/26 02:57:16;;;;;;;5.15;4.05;;;9.00;99.90;;;;;;5065910;28;20032;-62
2023/10/26 02:59:42;;;;;;;7.32;4.30;;;9.00;99.90;;;;;;5062334;28;20049;-61
2023/10/26 03:02:07;;;;;;;;;;;9.00;99.90;;;;;;5063778;28;20045;-63
2023/10/26 03:04:37;;;;;;;7.70;5.00;;;9.00;99.90;;;;;;5058164;28;20447;-65
2023/10/26 03:07:03;;;;;;;7.10;4.80;;;9.00;99.90;;;;;;5058693;28;20040;-63
2023/10/26 03:09:29;;;;;;;;;;;9.00;99.90;;;;;;5066514;28;20040;-64
2023/10/26 03:11:55;;;;;;;9.38;4.57;;;8.90;99.90;;;;;;5061931;28;20730;-64
2023/10/26 03:14:20;;;;;;;5.95;4.40;;;8.90;99.90;;;;;;5055508;28;20049;-64
2023/10/26 03:16:46;;;;;;;;;;;8.80;99.90;;;;;;5061812;28;20043;-63
2023/10/26 03:19:12;;;;;;;5.38;3.85;;;8.80;99.90;;;;;;5060393;28;20436;-63
2023/10/26 03:21:39;;;;;;;;;;;8.80;99.90;;;;;;5047260;28;20066;-63
2023/10/26 03:24:05;;;;;;;7.65;4.07;;;8.70;99.90;;;;;;5061784;28;19970;-63
2023/10/26 03:26:31;;;;;;;4.90;3.80;;;8.80;99.90;;;;;;5064465;28;20090;-63
2023/10/26 03:28:56;;;;;;;;;;;8.80;99.90;;;;;;5062961;28;20037;-63
2023/10/26 03:31:22;;;;;;;6.15;3.65;;;8.80;99.90;;;;;;5057637;28;20598;-65
2023/10/26 03:33:47;;;;;;;5.20;3.30;;;8.80;99.90;;;;;;5061193;28;20064;-65
2023/10/26 03:36:14;;;;;;;;;;;8.70;99.90;;;;;;5063463;28;20092;-62
2023/10/26 03:38:40;;;;;;;4.60;3.33;;;8.70;99.90;;;;;;5066128;28;19950;-64
2023/10/26 03:41:05;;;;;;;;;;;8.70;99.90;;;;;;5061392;28;20119;-63
2023/10/26 03:43:31;;;;;;;4.65;3.05;;;8.70;99.90;;;;;;5062695;28;20375;-64
2023/10/26 03:45:56;;;;;;;4.45;3.35;;;8.70;99.90;;;;;;5062298;28;20127;-64
2023/10/26 03:48:22;;;;;;;;;;;8.60;99.90;;;;;;5065946;28;20037;-64
2023/10/26 03:50:47;;;;;;;3.92;2.88;;;8.60;99.90;;;;;;5060937;28;19924;-61
2023/10/26 03:53:13;;;;;;;4.60;3.40;;;8.60;99.90;;;;;;5065643;28;20048;-65
2023/10/26 03:55:39;;;;;;;;;;;8.60;99.90;;;;;;5068915;28;20040;-62
2023/10/26 03:58:04;;;;;;;4.63;3.05;;;8.60;99.90;;;;;;5069072;28;20014;-64
2023/10/26 04:00:30;;;;;;;5.55;3.40;;;8.60;99.90;;;;;;5067832;28;20039;-60
2023/10/26 04:02:55;;;;;;;5.78;3.38;;;8.60;99.90;;;;;;5067501;28;20044;-65
2023/10/26 04:05:21;;;;;;;4.55;3.13;;;8.60;99.90;;;;;;5066798;28;20043;-60
2023/10/26 04:07:46;;;;;;;;;;;8.60;99.90;;;;;;5069328;28;20057;-63
2023/10/26 04:10:12;;;;;;;3.35;2.50;;;8.60;99.90;;;;;;5065069;28;19916;-62
2023/10/26 04:12:38;;;;;;;;;;;8.50;99.90;;;;;;5068259;28;20035;-63
2023/10/26 04:15:04;;;;;;;3.25;2.63;;;8.50;99.90;;;;;;5062739;28;19920;-63
2023/10/26 04:17:31;;;;;;;2.45;1.92;;;8.50;99.90;;;;;;5063339;28;20077;-63
2023/10/26 04:19:57;;;;;;;2.50;2.00;;;8.50;99.90;;;;;;5065107;28;20048;-63
2023/10/26 04:22:23;;;;;;;;;;;8.50;99.90;;;;;;5069037;28;20044;-65
2023/10/26 04:24:48;;;;;;;3.50;2.58;;;8.50;99.90;;;;;;5064772;28;19929;-64
2023/10/26 04:27:14;;;;;;;;;;;8.50;99.90;;;;;;5064673;28;20496;-64
2023/10/26 04:29:40;;;;;;;2.63;2.10;;;8.50;99.90;;;;;;5064483;28;19920;-63
2023/10/26 04:32:06;;;;;;;3.15;2.47;;;8.50;99.90;;;;;;5068108;28;20116;-64
2023/10/26 04:34:32;;;;;;;5.25;2.75;;;8.40;99.90;;;;;;5067018;28;20442;-64
2023/10/26 04:36:57;;;;;;;;;;;8.40;99.90;;;;;;5067313;28;20037;-64
2023/10/26 04:39:23;;;;;;;4.72;3.17;;;8.30;99.90;;;;;;5062034;28;20379;-62
2023/10/26 04:41:48;;;;;;;3.90;3.20;;;8.30;99.90;;;;;;5067763;28;20047;-65
2023/10/26 04:44:14;;;;;;;;;;;8.30;99.90;;;;;;5061439;28;20719;-64
2023/10/26 04:46:40;;;;;;;3.97;2.83;;;8.30;99.90;;;;;;5065486;28;19940;-64
2023/10/26 04:49:05;;;;;;;;;;;8.40;99.90;;;;;;5062720;28;20063;-62
2023/10/26 04:51:32;;;;;;;4.63;3.30;;;8.30;99.90;;;;;;5068431;28;19916;-63
2023/10/26 04:53:57;;;;;;;5.93;3.90;;;8.30;99.90;;;;;;5064838;28;20048;-63
2023/10/26 04:56:23;;;;;;;;;;;8.20;99.90;;;;;;5068840;28;20044;-63
2023/10/26 04:58:49;;;;;;;4.32;3.42;;;8.20;99.90;;;;;;5067151;28;19916;-64
2023/10/26 05:01:14;;;;;;;;;;;8.10;99.90;;;;;;5064521;28;20029;-63
2023/10/26 05:03:40;;;;;;;3.63;2.75;;;8.20;99.90;;;;;;5062858;28;19974;-63
2023/10/26 05:06:06;;;;;;;4.00;3.00;;;8.20;99.90;;;;;;5060385;28;20076;-60
2023/10/26 05:08:32;;;;;;;;;;;8.20;99.90;;;;;;5063694;28;20093;-60
2023/10/26 05:10:58;;;;;;;3.67;3.00;;;8.20;99.90;;;;;;5061676;28;19960;-63
2023/10/26 05:13:24;;;;;;;4.35;3.10;;;8.20;99.90;;;;;;5063011;28;20064;-71
2023/10/26 05:15:49;;;;;;;;;;;8.20;99.90;;;;;;5059820;28;20169;-66
2023/10/26 05:18:15;;;;;;;4.50;3.20;;;8.20;99.90;;;;;;5061975;28;20457;-63
2023/10/26 05:20:46;;;;;;;;;;;8.30;99.90;;;;;;5066745;28;20093;-63
2023/10/26 05:23:12;;;;;;;4.55;3.58;;;8.30;99.90;;;;;;5060022;28;19973;-64
2023/10/26 05:25:37;;;;;;;;;;;8.20;99.90;;;;;;5062998;28;20377;-66
2023/10/26 05:28:05;;;;;;;6.70;3.43;;;8.20;99.90;;;;;;5066015;28;20065;-68
2023/10/26 05:30:31;;;;;;;4.75;3.72;;;8.20;99.90;;;;;;5062302;28;20128;-65
2023/10/26 05:32:56;;;;;;;;;;;8.20;99.90;;;;;;5065405;28;20262;-67
2023/10/26 05:35:22;;;;;;;3.80;3.10;;;8.20;99.90;;;;;;5064489;28;19931;-66
2023/10/26 05:37:48;;;;;;;4.32;3.15;;;8.20;99.90;;;;;;5060005;28;20077;-63
2023/10/26 05:40:13;;;;;;;;;;;8.30;99.90;;;;;;5062082;28;20043;-63
2023/10/26 05:42:39;;;;;;;6.57;3.40;;;8.20;99.90;;;;;;5063059;28;19917;-64
2023/10/26 05:45:05;;;;;;;3.55;2.70;;;8.30;99.90;;;;;;5060854;28;20040;-64
2023/10/26 05:47:31;;;;;;;7.20;3.58;;;8.30;99.90;;;;;;5066222;28;20175;-64
2023/10/26 05:49:57;;;;;;;;;;;8.30;99.90;;;;;;5065535;28;20131;-66
2023/10/26 05:52:23;;;;;;;6.18;3.63;;;8.20;99.90;;;;;;5054752;28;19943;-65
2023/10/26 05:54:50;;;;;;;;;;;8.20;99.90;;;;;;5063910;28;20055;-65
2023/10/26 05:57:16;;;;;;;4.03;3.17;;;8.20;99.90;;;;;;5067248;28;19916;-65
2023/10/26 05:59:41;;;;;;;6.15;2.97;;;8.20;99.90;;;;;;5063579;28;20047;-62
2023/10/26 06:02:07;;;;;;;;;;;8.20;99.90;;;;;;5064704;28;20694;-61
2023/10/26 06:04:32;;;;;;;5.35;3.45;;;8.30;99.90;;;;;;5060730;28;19923;-64
2023/10/26 06:06:58;;;;;;;;;;;8.30;99.90;;;;;;5066320;28;20037;-65
2023/10/26 06:09:24;;;;;;;6.03;4.20;;;8.30;99.90;;;;;;5063820;28;19955;-64
2023/10/26 06:11:50;;;;;;;5.40;4.13;;;8.30;99.90;;;;;;5067538;28;20306;-64
2023/10/26 06:14:15;;;;;;;5.68;4.32;;;8.30;99.90;;;;;;5059257;28;20132;-60
2023/10/26 06:16:41;;;;;;;;;;;8.20;99.90;;;;;;5062197;28;20098;-62
2023/10/26 06:19:06;;;;;;;6.00;4.13;;;8.30;99.90;;;;;;5062515;28;19923;-64
2023/10/26 06:21:32;;;;;;;6.35;4.00;;;8.20;99.90;;;;;;5064932;28;21175;-62
2023/10/26 06:23:58;;;;;;;;;;;8.20;99.90;;;;;;5064841;28;20036;-64
2023/10/26 06:26:23;;;;;;;5.45;3.90;;;8.30;99.90;;;;;;5061560;28;19966;-62
2023/10/26 06:28:49;;;;;;;;;;;8.30;99.90;;;;;;5066411;28;20123;-61
2023/10/26 06:31:15;;;;;;;5.70;4.32;;;8.20;99.90;;;;;;5063297;28;20011;-61
2023/10/26 06:33:41;;;;;;;6.45;4.90;;;8.20;99.90;;;;;;5065926;28;20039;-62
2023/10/26 06:36:08;;;;;;;6.60;4.93;;;8.30;99.90;;;;;;5063351;28;20040;-65
2023/10/26 06:38:34;;;;;;;6.63;4.88;;;8.20;99.90;;;;;;5067323;28;20539;-64
2023/10/26 06:40:59;;;;;;;;;;;8.30;99.90;;;;;;5064877;28;20036;-61
2023/10/26 06:43:25;;;;;;;8.55;4.47;;;8.30;99.90;;;;;;5066472;28;19935;-65
2023/10/26 06:45:51;;;;;;;;;;;8.20;99.90;;;;;;5065668;28;20094;-65
2023/10/26 06:48:20;;;;;;;6.38;4.57;;;8.30;99.90;;;;;;5068930;28;19967;-63
2023/10/26 06:50:46;;;;;;;7.03;5.15;;;8.30;99.90;;;;;;5065520;28;20040;-61
2023/10/26 06:53:12;;;;;;;6.68;4.45;;;8.30;99.90;;;;;;5067424;28;20044;-61
2023/10/26 06:55:38;;;;;;;6.85;5.15;;;8.30;99.90;;;;;;5064764;28;20519;-64
2023/10/26 06:58:04;;;;;;;;;;;8.30;99.90;;;;;;5068563;28;20040;-63
2023/10/26 07:00:30;;;;;;;6.75;4.40;;;8.40;99.90;;;;;;5062885;28;19916;-62
2023/10/26 07:02:56;;;;;;;7.68;5.03;;;8.40;99.90;;;;;;5067943;28;20049;-61
2023/10/26 07:05:21;;;;;;;;;;;8.40;99.90;;;;;;5063745;28;20044;-66
2023/10/26 07:07:47;;;;;;;6.57;4.40;;;8.40;99.90;;;;;;5069336;28;20469;-64
2023/10/26 07:10:16;;;;;;;;;;;8.50;99.90;;;;;;5065842;28;20079;-62
2023/10/26 07:12:45;;;;;;;6.65;5.00;;;8.50;99.90;;;;;;5065392;28;19925;-62
2023/10/26 07:15:11;;;;;;;6.78;4.57;;;8.50;99.90;;;;;;5059033;28;20040;-62
2023/10/26 07:17:38;;;;;;;6.68;4.40;;;8.50;99.90;;;;;;5065424;28;20093;-61
2023/10/26 07:20:05;;;;;;;5.88;4.13;;;8.50;99.90;;;;;;5064275;28;20091;-62
2023/10/26 07:22:34;;;;;;;6.18;4.57;;;8.50;99.90;;;;;;5065417;28;20079;-62
2023/10/26 07:25:01;;;;;;;5.20;4.10;;;8.50;99.90;;;;;;5064035;28;20040;-62
2023/10/26 07:27:28;;;;;;;5.30;3.85;;;8.50;99.90;;;;;;5061680;28;20072;-60
2023/10/26 07:29:54;;;;;;;5.45;4.13;;;8.50;99.90;;;;;;5066985;28;20040;-62
2023/10/26 07:41:08;;;;;;;4.22;3.50;;;8.50;99.90;;;;;;4990079;28;20082;-62
2023/10/26 07:43:37;;;;;;;5.18;3.65;;;8.50;99.90;;;;;;4984818;28;20504;-62
2023/10/26 07:46:03;;;;;;;5.15;3.85;;;8.50;99.90;;;;;;4992749;28;20042;-62
2023/10/26 07:48:29;;;;;;;4.38;3.38;;;8.50;99.90;;;;;;4125812;23;10001112;-62
2023/10/26 07:50:57;;;;;;;4.43;3.53;;;8.50;99.90;;;;;;4144925;28;10000776;-62
2023/10/26 07:53:23;;;;;;;4.03;3.08;;;8.50;99.90;;;;;;5021449;28;20116;-63
2023/10/26 07:55:50;;;;;;;5.00;3.67;;;8.50;99.90;;;;;;5024302;28;20106;-62
2023/10/26 07:58:16;;;;;;;3.75;3.00;;;8.50;99.90;;;;;;5025632;28;20041;-60
2023/10/26 08:00:41;;;;;;;;;;;8.50;99.90;;;;;;5028028;28;20138;-66
2023/10/26 08:03:07;;;;;;;7.22;2.55;;;8.50;99.90;;;;;;5022725;28;20024;-63
2023/10/26 08:05:33;;;;;;;5.13;3.67;;;8.50;99.90;;;;;;5029270;28;20064;-64
2023/10/26 08:07:58;;;;;;;4.50;3.20;;;8.60;99.90;;;;;;5024119;28;20112;-65
2023/10/26 08:10:24;;;;;;;;;;;8.60;99.90;;;;;;5023747;28;20034;-64
2023/10/26 08:12:52;;;;;;;5.75;3.38;;;8.60;99.90;;;;;;5022902;28;20331;-64
2023/10/26 08:15:19;;;;;;;4.70;4.00;;;8.60;99.90;;;;;;5029310;28;20507;-64
2023/10/26 08:17:44;;;;;;;11.90;3.75;;;8.60;99.90;;;;;;5024465;28;20504;-64
2023/10/26 08:20:10;;;;;;;;;;;8.60;99.90;;;;;;5027731;28;20091;-64
2023/10/26 08:22:36;;;;;;;5.03;4.10;;;8.70;99.90;;;;;;5026397;28;20347;-64
2023/10/26 08:25:04;;;;;;;;;;;8.60;99.90;;;;;;5025162;28;20065;-64
2023/10/26 08:27:31;;;;;;;5.18;4.00;;;8.60;99.90;;;;;;5022428;28;20458;-65
2023/10/26 08:29:57;;;;;;;5.78;3.85;;;8.60;99.90;;;;;;5027528;28;20084;-64
2023/10/26 08:32:22;;;;;;;;;;;8.60;99.90;;;;;;5024620;28;20065;-65
2023/10/26 08:34:48;;;;;;;6.55;4.47;;;8.70;99.90;;;;;;5024769;28;19982;-65
2023/10/26 08:37:15;;;;;;;4.32;3.72;;;8.70;99.90;;;;;;5019013;28;20050;-63
2023/10/26 08:39:41;;;;;;;5.60;4.38;;;8.70;99.90;;;;;;5026341;28;20053;-64
2023/10/26 08:42:06;;;;;;;;;;;8.70;99.90;;;;;;5024922;28;20508;-64
2023/10/26 08:44:32;;;;;;;6.35;4.82;;;8.70;99.90;;;;;;5027383;28;20011;-66
2023/10/26 08:47:00;;;;;;;;;;;8.70;99.90;;;;;;5027202;28;20072;-63
2023/10/26 08:49:29;;;;;;;5.65;4.45;;;8.80;99.90;;;;;;5023975;28;20355;-63
2023/10/26 08:51:55;;;;;;;9.48;5.15;;;8.80;99.90;;;;;;5028187;28;20041;-63
2023/10/26 08:54:20;;;;;;;;;;;8.80;99.90;;;;;;5025483;28;20037;-63
2023/10/26 08:56:46;;;;;;;4.97;3.97;;;8.90;99.90;;;;;;5027667;28;20531;-66
2023/10/26 08:59:12;;;;;;;8.73;4.20;;;8.90;99.90;;;;;;5027143;28;20048;-65
2023/10/26 09:01:37;;;;;;;8.85;4.72;;;9.00;99.90;;;;;;5027869;28;20448;-64
2023/10/26 09:04:10;;;;;;;5.50;4.20;;;9.00;99.90;;;;;;5024224;28;20438;-67
2023/10/26 09:06:44;;;;;;;5.18;3.85;;;9.00;99.90;;;;;;5026817;28;20041;-67
2023/10/26 09:09:15;;;;;;;;;;;9.00;99.90;;;;;;5026169;28;20099;-65
2023/10/26 09:11:44;;;;;;;4.85;3.33;;;9.10;99.90;;;;;;5027542;28;19921;-65
2023/10/26 09:14:13;;;;;;;6.30;3.80;;;9.10;99.90;;;;;;5026439;28;20491;-65
2023/10/26 09:16:41;;;;;;;5.93;3.97;;;9.10;99.90;;;;;;5027815;28;20547;-64
2023/10/26 09:19:14;;;;;;;6.50;3.97;;;9.10;99.90;;;;;;5024879;28;20041;-65
2023/10/26 09:21:55;;;;;;;4.78;3.45;;;9.10;99.90;;;;;;5025482;28;20156;-65
2023/10/26 09:24:29;;;;;;;5.40;3.88;;;9.20;99.90;;;;;;5023729;28;20657;-66
2023/10/26 09:26:56;;;;;;;4.28;3.28;;;9.10;99.90;;;;;;5024978;28;20068;-66
2023/10/26 09:29:39;;;;;;;4.30;3.38;;;9.20;99.90;;;;;;5026429;28;20044;-67
2023/10/26 09:32:05;;;;;;;6.28;3.88;;;9.20;99.90;;;;;;5026301;28;20128;-65
2023/10/26 09:34:37;;;;;;;7.22;4.28;;;9.20;99.90;;;;;;5023303;28;20543;-65
2023/10/26 09:37:04;;;;;;;5.65;4.30;;;9.30;99.90;;;;;;5023666;28;20069;-65
2023/10/26 09:39:32;;;;;;;5.47;4.35;;;9.20;99.90;;;;;;5024094;28;20116;-66
2023/10/26 09:42:01;;;;;;;5.85;4.03;;;9.20;99.90;;;;;;5023236;28;20044;-67
2023/10/26 09:44:30;;;;;;;7.28;4.85;;;9.20;99.90;;;;;;5018477;28;20049;-65
2023/10/26 09:46:57;;;;;;;4.80;3.83;;;9.30;99.90;;;;;;5023174;28;20053;-66
2023/10/26 09:49:24;;;;;;;5.38;3.88;;;9.30;99.90;;;;;;5019065;28;20550;-65
2023/10/26 09:51:50;;;;;;;4.90;3.85;;;9.30;99.90;;;;;;5018475;28;20052;-65
2023/10/26 09:54:18;;;;;;;6.00;4.15;;;9.30;99.90;;;;;;5024472;28;20053;-64
2023/10/26 09:56:57;;;;;;;9.32;3.85;;;9.30;99.90;;;;;;5022375;28;20081;-65
2023/10/26 09:59:23;;;;;;;8.43;4.18;;;9.30;99.90;;;;;;5023787;28;20307;-62
2023/10/26 10:01:49;;;;;;;6.50;4.43;;;9.30;99.90;;;;;;5025354;28;20076;-65
2023/10/26 10:04:18;;;;;;;;;;;9.30;99.90;;;;;;5021678;28;20041;-63
2023/10/26 10:06:55;;;;;;;7.93;4.47;;;9.30;99.90;;;;;;5026233;28;19931;-65
2023/10/26 10:09:25;;;;;;;4.97;4.15;;;9.30;99.90;;;;;;5022955;28;20477;-64
2023/10/26 10:12:06;;;;;;;4.95;4.18;;;9.30;99.90;;;;;;5023870;28;20528;-63
2023/10/26 10:14:46;;;;;;;5.05;3.72;;;9.40;99.90;;;;;;5025258;28;20528;-66
2023/10/26 10:17:12;;;;;;;6.78;5.13;;;9.40;99.90;;;;;;5024828;28;20049;-65
2023/10/26 10:19:40;;;;;;;6.20;4.65;;;9.40;99.90;;;;;;5023814;28;20073;-66
2023/10/26 10:22:38;;;;;;;8.60;5.50;;;9.40;99.90;;;;;;5025874;28;20037;-65
2023/10/26 10:25:05;;;;;;;6.53;4.80;;;9.30;99.90;;;;;;5020232;28;20056;-65
2023/10/26 10:27:30;;;;;;;6.75;4.63;;;9.30;99.90;;;;;;5023450;28;20042;-64
2023/10/26 10:29:56;;;;;;;;;;;9.30;99.90;;;;;;5023754;28;20033;-65
2023/10/26 10:32:47;;;;;;;6.38;5.03;;;9.30;99.90;;;;;;5022944;28;19925;-64
2023/10/26 10:35:22;;;;;;;5.82;4.68;;;9.20;99.90;;;;;;5024367;28;20033;-66
2023/10/26 10:38:24;;;;;;;7.15;5.00;;;9.30;99.90;;;;;;5023542;28;20136;-64
2023/10/26 10:40:59;;;;;;;8.30;5.05;;;9.20;99.90;;;;;;5026327;28;20418;-62
2023/10/26 10:43:44;;;;;;;6.95;5.50;;;9.30;99.90;;;;;;5020751;28;20037;-64
2023/10/26 10:46:17;;;;;;;5.40;4.22;;;9.30;99.90;;;;;;5026555;28;20050;-64
2023/10/26 10:48:56;;;;;;;7.05;5.18;;;9.30;99.90;;;;;;5023188;28;21213;-66
2023/10/26 10:51:29;;;;;;;7.68;4.25;;;9.20;99.90;;;;;;5023592;28;20137;-65
2023/10/26 10:53:55;;;;;;;6.47;4.68;;;9.30;99.90;;;;;;5022799;28;20041;-64
2023/10/26 10:56:23;;;;;;;5.97;4.90;;;9.20;99.90;;;;;;5026323;28;20483;-64
2023/10/26 10:58:50;;;;;;;6.88;4.97;;;9.30;99.90;;;;;;5021473;28;20045;-65
2023/10/26 11:01:20;;;;;;;6.53;4.55;;;9.30;99.90;;;;;;5024478;28;20509;-63
2023/10/26 11:03:49;;;;;;;5.45;4.18;;;9.30;99.90;;;;;;5023600;28;20041;-65
2023/10/26 11:06:16;;;;;;;5.75;4.50;;;9.30;99.90;;;;;;5026264;28;20053;-66
2023/10/26 11:08:42;;;;;;;6.63;5.05;;;9.20;99.90;;;;;;5027454;28;20045;-64
2023/10/26 11:11:08;;;;;;;;;;;9.20;99.90;;;;;;5027455;28;20049;-63
2023/10/26 11:13:33;;;;;;;6.97;4.82;;;9.20;99.90;;;;;;5023951;28;19921;-63
2023/10/26 11:15:59;;;;;;;;;;;9.30;99.90;;;;;;5027079;28;20664;-64
2023/10/26 11:18:25;;;;;;;5.68;4.47;;;9.30;99.90;;;;;;5024831;28;20513;-63
2023/10/26 11:20:50;;;;;;;;;;;9.30;99.90;;;;;;5026253;28;20060;-63
2023/10/26 11:23:21;;;;;;;5.68;4.28;;;9.40;99.90;;;;;;5022870;28;20363;-63
2023/10/26 11:25:46;;;;;;;6.10;4.50;;;9.30;99.90;;;;;;5026476;28;20037;-63
2023/10/26 11:28:12;;;;;;;;;;;9.30;99.90;;;;;;5025449;28;20087;-64
2023/10/26 11:30:52;;;;;;;6.85;3.88;;;9.40;99.90;;;;;;5026257;28;20376;-63
2023/10/26 11:33:39;;;;;;;7.75;4.72;;;9.40;99.90;;;;;;5026440;28;20037;-64
2023/10/26 11:36:12;;;;;;;6.00;4.07;;;9.50;99.90;;;;;;5026910;28;20053;-63
2023/10/26 11:38:48;;;;;;;5.32;3.95;;;9.50;99.90;;;;;;5023135;28;20042;-64
2023/10/26 11:41:24;;;;;;;5.80;4.43;;;9.50;99.90;;;;;;5026331;28;20508;-63
2023/10/26 11:43:50;;;;;;;6.30;4.55;;;9.50;99.90;;;;;;5023697;28;20062;-63
2023/10/26 11:46:15;;;;;;;6.47;4.28;;;9.50;99.90;;;;;;5026153;28;20052;-63
2023/10/26 11:48:41;;;;;;;;;;;9.50;99.90;;;;;;5025462;28;20029;-64
2023/10/26 11:51:07;;;;;;;4.88;3.75;;;9.60;99.90;;;;;;5025866;28;19917;-63
2023/10/26 11:53:34;;;;;;;6.18;4.45;;;9.60;99.90;;;;;;5025312;28;20171;-63
2023/10/26 11:56:00;;;;;;;8.30;4.15;;;9.70;99.90;;;;;;5025026;28;20037;-65
2023/10/26 11:58:25;;;;;;;;;;;9.60;99.90;;;;;;5025384;28;20489;-65
2023/10/26 12:00:51;;;;;;;5.20;3.65;;;9.70;99.90;;;;;;5025529;28;19920;-64
2023/10/26 12:03:16;;;;;;;9.38;3.92;;;9.70;99.90;;;;;;5025194;28;20088;-63
2023/10/26 12:05:42;;;;;;;5.53;4.03;;;9.70;99.90;;;;;;5023773;28;20029;-62
2023/10/26 12:08:08;;;;;;;;;;;9.70;99.90;;;;;;5024286;28;20052;-63
2023/10/26 12:10:34;;;;;;;4.53;3.13;;;9.70;99.90;;;;;;5024128;28;19924;-67
2023/10/26 12:12:59;;;;;;;;;;;9.70;99.90;;;;;;5025842;28;20063;-64
2023/10/26 12:15:25;;;;;;;4.65;3.53;;;9.60;99.90;;;;;;5028988;28;19925;-63
2023/10/26 12:17:51;;;;;;;;;;;9.60;99.90;;;;;;5028806;28;20049;-64
2023/10/26 12:20:17;;;;;;;4.10;2.80;;;9.70;99.90;;;;;;5028974;28;19917;-64
2023/10/26 12:22:43;;;;;;;4.03;2.95;;;9.70;99.90;;;;;;5028484;28;20575;-64
2023/10/26 12:25:10;;;;;;;4.22;3.20;;;9.80;99.90;;;;;;5029108;28;20068;-64
2023/10/26 12:27:36;;;;;;;9.82;3.53;;;9.80;99.90;;;;;;5027943;28;20042;-64
2023/10/26 12:30:02;;;;;;;8.32;3.80;;;9.80;99.90;;;;;;5029230;28;20485;-64
2023/10/26 12:32:29;;;;;;;;;;;9.80;99.90;;;;;;5027931;28;21707;-64
2023/10/26 12:34:55;;;;;;;3.70;2.72;;;9.80;99.90;;;;;;5029015;28;19956;-64
2023/10/26 12:37:20;;;;;;;3.65;2.85;;;9.90;99.90;;;;;;5027558;28;20069;-64
2023/10/26 12:39:47;;;;;;;;;;;10.00;99.90;;;;;;5027612;28;20092;-65
2023/10/26 12:42:12;;;;;;;2.92;2.30;;;10.00;99.90;;;;;;5024849;28;20299;-64
2023/10/26 12:44:38;;;;;;;;;;;10.10;99.90;;;;;;5029402;28;20037;-64
2023/10/26 12:47:04;;;;;;;3.90;2.80;;;10.10;99.90;;;;;;5027773;28;20812;-64
2023/10/26 12:49:30;;;;;;;;;;;10.10;99.90;;;;;;5026300;28;20037;-64
2023/10/26 12:51:56;;;;;;;2.67;2.10;;;10.10;99.90;;;;;;5025811;28;20011;-64
2023/10/26 12:54:21;;;;;;;3.20;2.38;;;10.00;99.90;;;;;;5027110;28;20041;-64
2023/10/26 12:56:47;;;;;;;;;;;10.00;99.90;;;;;;5028993;28;20115;-64
2023/10/26 12:59:12;;;;;;;3.35;2.10;;;10.00;99.90;;;;;;5025082;28;20423;-64
2023/10/26 13:01:39;;;;;;;3.70;2.67;;;10.10;99.90;;;;;;5028053;28;20034;-64
2023/10/26 13:04:05;;;;;;;5.55;2.33;;;10.10;99.90;;;;;;5027192;28;20454;-64
2023/10/26 13:06:30;;;;;;;;;;;10.10;99.90;;;;;;5028469;28;20496;-64
2023/10/26 13:08:56;;;;;;;2.78;1.95;;;10.20;99.90;;;;;;5026420;28;19925;-64
2023/10/26 13:11:22;;;;;;;;;;;10.30;99.90;;;;;;5028370;28;20053;-64
2023/10/26 13:13:47;;;;;;;3.22;2.28;;;10.30;99.90;;;;;;5026989;28;20280;-63
2023/10/26 13:16:13;;;;;;;2.95;2.15;;;10.30;99.90;;;;;;5028049;28;20037;-65
2023/10/26 13:18:38;;;;;;;2.65;2.03;;;10.30;99.90;;;;;;5025900;28;20040;-64
2023/10/26 13:21:05;;;;;;;;;;;10.30;99.90;;;;;;5029110;28;20041;-64
2023/10/26 13:23:31;;;;;;;3.25;2.30;;;10.30;99.90;;;;;;5025076;28;19921;-65
2023/10/26 13:25:57;;;;;;;4.10;2.35;;;10.30;99.90;;;;;;5027885;28;20033;-64
2023/10/26 13:28:23;;;;;;;;;;;10.40;99.90;;;;;;5026236;28;20099;-64
2023/10/26 13:30:49;;;;;;;4.45;1.98;;;10.30;99.90;;;;;;5025015;28;20007;-64